Time;durP1;ratioP1;P1;durP2;ratioP2;P2;SDS_P1;SDS_P2;PMS_P1;PMS_P2;Temp;Humidity;BMP_temperature;BMP_pressure;BME280_temperature;BME280_humidity;BME280_pressure;Samples;Min_cycle;Max_cycle;Signal;HPM_P1;HPM_P2
2022/04/12 00:01:04;;;;;;;20.25;7.70;;;;;;;10.34;68.59;100868.44;5057335;28;20059;-72
2022/04/12 00:03:31;;;;;;;16.70;7.82;;;;;;;10.28;71.62;100867.22;5055789;28;20102;-75
2022/04/12 00:05:58;;;;;;;17.02;7.63;;;;;;;10.33;70.87;100866.81;5060810;28;20068;-74
2022/04/12 00:08:25;;;;;;;20.80;7.30;;;;;;;10.30;70.87;100873.13;5055966;28;20163;-74
2022/04/12 00:10:52;;;;;;;18.50;7.88;;;;;;;10.27;70.65;100867.63;5062396;28;20084;-75
2022/04/12 00:13:20;;;;;;;18.70;7.00;;;;;;;10.22;70.96;100865.22;5062560;28;20048;-74
2022/04/12 00:15:49;;;;;;;17.17;7.80;;;;;;;10.21;72.95;100864.44;5056554;28;20118;-74
2022/04/12 00:21:02;;;;;;;17.60;7.53;;;;;;;10.20;72.67;100865.59;5063476;28;20511;-74
2022/04/12 00:23:29;;;;;;;18.08;7.15;;;;;;;10.20;72.37;100859.31;5052555;28;20135;-72
2022/04/12 00:25:56;;;;;;;16.48;6.88;;;;;;;10.13;70.26;100851.00;5062979;28;20568;-75
2022/04/12 00:28:22;;;;;;;18.73;6.75;;;;;;;10.14;71.06;100852.56;5062721;28;20424;-74
2022/04/12 00:30:49;;;;;;;20.85;7.22;;;;;;;10.12;69.98;100854.91;5062571;28;20416;-75
2022/04/12 00:33:16;;;;;;;16.77;6.80;;;;;;;10.08;71.32;100845.81;5057042;28;20075;-75
2022/04/12 00:35:42;;;;;;;17.23;7.00;;;;;;;10.00;71.33;100850.50;5054113;28;20063;-75
2022/04/12 00:38:18;;;;;;;19.60;7.47;;;;;;;9.96;72.95;100849.69;5059952;28;20087;-74
2022/04/12 00:40:46;;;;;;;19.90;7.82;;;;;;;9.93;75.29;100839.41;5055856;28;20057;-75
2022/04/12 00:43:15;;;;;;;19.75;7.07;;;;;;;9.94;72.34;100841.03;5059931;28;20056;-75
2022/04/12 00:45:41;;;;;;;16.80;6.88;;;;;;;9.87;73.95;100843.78;5053820;28;20191;-74
2022/04/12 00:48:07;;;;;;;18.58;6.70;;;;;;;9.86;75.14;100842.16;5059795;28;20132;-73
2022/04/12 00:50:35;;;;;;;18.20;7.60;;;;;;;9.84;73.69;100846.50;5052746;28;20053;-73
2022/04/12 00:53:01;;;;;;;13.10;6.03;;;;;;;9.80;76.02;100835.44;5060058;28;20059;-74
2022/04/12 00:55:29;;;;;;;15.55;6.38;;;;;;;9.78;73.92;100828.72;5064854;28;20456;-75
2022/04/12 00:57:56;;;;;;;14.07;6.43;;;;;;;9.77;72.92;100830.69;5064618;28;20117;-75
2022/04/12 01:00:23;;;;;;;14.05;5.78;;;;;;;9.72;74.15;100822.00;5060908;28;20056;-74
2022/04/12 01:02:50;;;;;;;13.30;6.70;;;;;;;9.69;74.65;100826.31;5060942;28;20122;-74
2022/04/12 01:05:17;;;;;;;15.55;6.85;;;;;;;9.69;74.09;100825.53;5058734;28;20052;-74
2022/04/12 01:07:44;;;;;;;15.05;5.97;;;;;;;9.65;73.24;100821.97;5055638;28;20045;-74
2022/04/12 01:10:10;;;;;;;18.10;6.22;;;;;;;9.62;73.57;100808.94;5063053;28;20048;-73
2022/04/12 01:12:41;;;;;;;13.13;5.85;;;;;;;9.58;73.75;100819.16;5063131;28;20059;-73
2022/04/12 01:15:10;;;;;;;14.95;6.43;;;;;;;9.56;73.66;100816.00;5064054;28;20052;-75
2022/04/12 01:17:37;;;;;;;16.60;5.90;;;;;;;9.53;73.67;100814.00;5051447;28;20602;-74
2022/04/12 01:20:06;;;;;;;15.70;6.07;;;;;;;9.49;74.67;100813.97;5067654;28;20048;-75
2022/04/12 01:22:34;;;;;;;15.32;5.90;;;;;;;9.47;74.21;100802.53;5067382;28;20110;-74
2022/04/12 01:25:02;;;;;;;11.20;5.20;;;;;;;9.39;74.67;100809.19;5067256;28;20037;-75
2022/04/12 01:27:28;;;;;;;18.02;6.07;;;;;;;9.41;74.71;100803.28;5061576;28;20549;-75
2022/04/12 01:29:55;;;;;;;14.10;5.22;;;;;;;9.43;75.56;100809.22;5060041;28;20234;-74
2022/04/12 01:32:22;;;;;;;12.05;5.80;;;;;;;9.41;74.69;100806.03;5056869;28;20044;-73
2022/04/12 01:34:49;;;;;;;15.18;5.68;;;;;;;9.40;75.10;100805.28;5070783;28;20451;-73
2022/04/12 01:37:15;;;;;;;12.75;5.20;;;;;;;9.37;75.42;100806.03;5069561;28;20059;-74
2022/04/12 01:39:42;;;;;;;14.50;5.60;;;;;;;9.35;76.24;100797.34;5069441;28;20044;-75
2022/04/12 01:42:08;;;;;;;15.68;5.80;;;;;;;9.33;76.38;100796.97;5060327;28;20114;-74
2022/04/12 01:44:35;;;;;;;12.75;5.03;;;;;;;9.30;74.82;100789.44;5050410;28;20490;-74
2022/04/12 01:47:01;;;;;;;12.48;5.53;;;;;;;9.28;76.90;100783.50;5062609;28;20515;-74
2022/04/12 01:49:28;;;;;;;13.48;5.25;;;;;;;9.26;76.46;100785.88;5067467;28;20081;-76
2022/04/12 01:51:54;;;;;;;12.13;5.22;;;;;;;9.20;78.18;100781.91;5093071;28;20139;-73
2022/04/12 01:54:21;;;;;;;13.27;5.05;;;;;;;9.23;77.54;100781.13;5065787;28;20056;-74
2022/04/12 01:56:47;;;;;;;10.65;4.65;;;;;;;9.22;78.58;100774.00;5070407;28;20087;-74
2022/04/12 01:59:14;;;;;;;10.48;4.90;;;;;;;9.21;78.76;100777.94;5068639;28;20040;-76
2022/04/12 02:01:40;;;;;;;13.50;4.95;;;;;;;9.19;78.71;100782.28;5056449;28;20048;-74
2022/04/12 02:04:07;;;;;;;11.15;5.40;;;;;;;9.16;79.96;100786.63;5065120;28;20052;-72
2022/04/12 02:06:34;;;;;;;12.98;5.05;;;;;;;9.13;79.04;100776.34;5070882;28;20120;-73
2022/04/12 02:09:01;;;;;;;11.63;4.78;;;;;;;9.14;77.26;100788.16;5072349;28;20765;-73
2022/04/12 02:11:27;;;;;;;12.20;5.53;;;;;;;9.10;77.57;100788.16;5062304;28;20064;-73
2022/04/12 02:13:54;;;;;;;12.20;4.97;;;;;;;9.07;79.19;100782.59;5068931;28;20068;-73
2022/04/12 02:16:20;;;;;;;14.23;4.53;;;;;;;9.04;79.14;100777.88;5069851;28;20051;-73
2022/04/12 02:18:47;;;;;;;10.10;4.35;;;;;;;9.02;79.14;100780.22;5059433;28;20075;-73
2022/04/12 02:21:13;;;;;;;15.73;5.05;;;;;;;8.99;78.07;100775.47;5056613;28;20063;-73
2022/04/12 02:23:40;;;;;;;10.88;4.38;;;;;;;8.93;78.44;100777.78;5074290;28;20193;-74
2022/04/12 02:26:06;;;;;;;13.25;4.70;;;;;;;8.92;78.48;100775.41;5068808;28;20147;-72
2022/04/12 02:28:33;;;;;;;12.43;4.47;;;;;;;8.87;78.94;100764.75;5066891;28;20222;-74
2022/04/12 02:30:59;;;;;;;9.80;4.50;;;;;;;8.87;79.33;100762.00;5064032;28;20419;-73
2022/04/12 02:33:26;;;;;;;11.57;4.80;;;;;;;8.79;78.59;100752.88;5059502;28;20048;-73
2022/04/12 02:35:52;;;;;;;11.85;5.72;;;;;;;8.85;78.27;100767.09;5053884;28;20060;-73
2022/04/12 02:38:19;;;;;;;10.07;4.75;;;;;;;8.85;78.19;100762.38;5059045;28;20049;-73
2022/04/12 02:40:45;;;;;;;10.63;4.50;;;;;;;8.83;79.04;100769.44;5052659;28;20041;-74
2022/04/12 02:43:12;;;;;;;11.57;4.85;;;;;;;8.82;79.02;100771.41;5090298;28;20052;-75
2022/04/12 02:45:38;;;;;;;9.48;4.38;;;;;;;8.82;79.77;100768.66;5064476;28;20048;-74
2022/04/12 02:48:06;;;;;;;11.20;4.72;;;;;;;8.81;80.07;100764.28;5064436;28;20048;-74
2022/04/12 02:50:32;;;;;;;11.82;4.60;;;;;;;8.75;78.92;100760.34;5062825;28;20749;-74
2022/04/12 02:52:59;;;;;;;14.60;5.18;;;;;;;8.83;78.75;100763.91;5061718;28;20053;-74
2022/04/12 02:55:25;;;;;;;12.63;4.78;;;;;;;8.78;79.68;100765.06;5062260;28;20119;-74
2022/04/12 02:57:52;;;;;;;10.65;5.13;;;;;;;8.81;80.02;100763.53;5080772;28;20071;-74
2022/04/12 03:00:18;;;;;;;8.27;4.65;;;;;;;8.83;80.54;100756.44;5059232;28;20055;-74
2022/04/12 03:02:45;;;;;;;13.05;5.07;;;;;;;8.83;80.71;100756.44;5050170;28;20055;-75
2022/04/12 03:05:12;;;;;;;15.05;5.55;;;;;;;8.85;79.75;100753.28;5057234;28;20044;-73
2022/04/12 03:07:38;;;;;;;10.80;4.88;;;;;;;8.85;78.66;100753.28;5065741;28;20059;-73
2022/04/12 03:10:05;;;;;;;15.88;5.28;;;;;;;8.84;79.36;100746.19;5060516;28;20562;-73
2022/04/12 03:12:32;;;;;;;10.88;5.25;;;;;;;8.81;79.51;100752.47;5057022;28;20049;-74
2022/04/12 03:14:59;;;;;;;13.60;5.03;;;;;;;8.81;80.90;100761.53;5069099;28;20052;-75
2022/04/12 03:17:26;;;;;;;13.23;5.25;;;;;;;8.79;81.94;100760.34;5066708;28;20110;-73
2022/04/12 03:19:52;;;;;;;14.52;5.25;;;;;;;8.76;81.50;100761.91;5064861;28;20574;-73
2022/04/12 03:22:19;;;;;;;10.32;5.00;;;;;;;8.75;81.99;100765.06;5062086;28;20045;-76
2022/04/12 03:24:45;;;;;;;11.90;4.97;;;;;;;8.72;82.16;100752.81;5058844;28;20136;-75
2022/04/12 03:27:12;;;;;;;14.90;5.68;;;;;;;8.75;81.05;100765.06;5065914;28;20048;-74
2022/04/12 03:29:39;;;;;;;12.00;5.60;;;;;;;8.72;80.25;100755.59;5062667;28;20051;-75
2022/04/12 03:32:06;;;;;;;13.15;6.65;;;;;;;8.73;79.99;100746.13;5065895;28;20163;-74
2022/04/12 03:34:32;;;;;;;14.90;5.82;;;;;;;8.71;80.04;100750.44;5068696;28;20055;-74
2022/04/12 03:36:59;;;;;;;14.10;5.38;;;;;;;8.68;81.23;100743.75;5068018;28;20040;-75
2022/04/12 03:39:26;;;;;;;15.02;5.82;;;;;;;8.67;81.18;100744.13;5087929;28;20132;-74
2022/04/12 03:41:53;;;;;;;15.65;5.60;;;;;;;8.63;80.66;100735.81;5056725;28;20507;-73
2022/04/12 03:44:19;;;;;;;14.63;6.80;;;;;;;8.64;81.27;100725.56;5067990;28;20156;-73
2022/04/12 03:46:46;;;;;;;12.85;6.03;;;;;;;8.62;82.03;100733.44;5064091;28;20049;-73
2022/04/12 03:49:13;;;;;;;16.23;6.20;;;;;;;8.59;81.96;100740.50;5060233;28;20094;-75
2022/04/12 03:51:39;;;;;;;17.30;6.10;;;;;;;8.56;80.94;100735.75;5064474;28;20049;-74
2022/04/12 03:54:06;;;;;;;15.60;6.32;;;;;;;8.57;82.38;100725.53;5062025;28;20599;-73
2022/04/12 03:56:34;;;;;;;13.63;5.82;;;;;;;8.55;82.58;100728.66;5070039;28;20139;-73
2022/04/12 03:59:01;;;;;;;16.98;6.03;;;;;;;8.54;82.59;100740.09;5068140;28;20167;-73
2022/04/12 04:01:28;;;;;;;18.67;7.28;;;;;;;8.49;83.98;100735.72;5060469;28;20124;-73
2022/04/12 04:03:56;;;;;;;12.70;5.95;;;;;;;8.48;84.70;100736.88;5064064;28;20056;-73
2022/04/12 04:06:22;;;;;;;17.65;6.85;;;;;;;8.44;83.35;100727.78;5066632;28;20132;-74
2022/04/12 04:08:49;;;;;;;13.85;6.07;;;;;;;8.41;82.66;100730.53;5066787;28;20051;-73
2022/04/12 04:11:16;;;;;;;16.85;7.30;;;;;;;8.39;82.95;100719.06;5058205;28;20923;-72
2022/04/12 04:13:42;;;;;;;14.35;6.30;;;;;;;8.40;83.95;100723.44;5060479;28;20072;-73
2022/04/12 04:16:09;;;;;;;16.27;6.50;;;;;;;8.38;84.50;100718.31;5067818;28;20037;-72
2022/04/12 04:18:35;;;;;;;14.82;6.82;;;;;;;8.32;84.60;100708.78;5095961;28;20048;-74
2022/04/12 04:21:03;;;;;;;15.45;6.80;;;;;;;8.35;84.72;100721.81;5066958;28;20067;-73
2022/04/12 04:23:29;;;;;;;24.52;7.50;;;;;;;8.35;84.21;100721.81;5063911;28;20518;-74
2022/04/12 04:25:56;;;;;;;16.88;7.07;;;;;;;8.37;85.35;100715.91;5098704;28;20055;-74
2022/04/12 04:28:22;;;;;;;15.80;6.38;;;;;;;8.35;86.20;100707.22;5058920;28;20128;-73
2022/04/12 04:30:50;;;;;;;17.85;8.60;;;;;;;8.37;84.83;100722.22;5071309;28;20049;-74
2022/04/12 04:33:18;;;;;;;17.73;7.00;;;;;;;8.35;84.65;100713.53;5066853;28;20512;-73
2022/04/12 04:35:46;;;;;;;19.92;8.40;;;;;;;8.34;84.40;100711.16;5061584;28;20148;-74
2022/04/12 04:38:14;;;;;;;22.48;10.27;;;;;;;8.34;84.39;100705.66;5065206;28;20063;-73
2022/04/12 04:40:41;;;;;;;29.08;13.52;;;;;;;8.31;84.86;100709.97;5052885;28;20070;-73
2022/04/12 04:43:08;;;;;;;29.75;11.82;;;;;;;8.32;85.59;100708.78;5053091;28;20063;-74
2022/04/12 04:45:35;;;;;;;21.20;10.05;;;;;;;8.32;85.13;100722.56;5067598;28;20048;-74
2022/04/12 04:48:03;;;;;;;21.40;8.27;;;;;;;8.34;85.04;100717.47;5055253;28;20616;-75
2022/04/12 04:50:32;;;;;;;24.65;8.98;;;;;;;8.33;83.36;100715.88;5055381;28;20056;-74
2022/04/12 04:53:02;;;;;;;23.42;8.82;;;;;;;8.30;84.49;100713.88;5058792;28;20124;-74
2022/04/12 04:55:29;;;;;;;20.52;8.85;;;;;;;8.29;86.27;100717.03;5067378;28;20053;-74
2022/04/12 04:57:57;;;;;;;19.88;7.25;;;;;;;8.25;85.74;100713.44;5071438;28;20048;-74
2022/04/12 05:00:26;;;;;;;20.42;9.73;;;;;;;8.26;86.25;100726.84;5062539;28;20226;-74
2022/04/12 05:02:54;;;;;;;21.42;9.48;;;;;;;8.22;88.63;100731.53;5065773;28;20053;-74
2022/04/12 05:05:21;;;;;;;19.83;8.73;;;;;;;8.24;88.43;100722.91;5056710;28;20485;-74
2022/04/12 05:07:49;;;;;;;20.10;8.40;;;;;;;8.22;86.19;100737.06;5086801;27;20505;-74
2022/04/12 05:10:29;;;;;;;18.25;8.75;;;;;;;8.22;86.04;100730.75;5068419;28;20063;-75
2022/04/12 05:12:57;;;;;;;20.83;8.60;;;;;;;8.20;86.24;100731.09;5085983;28;20147;-73
2022/04/12 05:15:24;;;;;;;20.70;8.80;;;;;;;8.16;86.64;100735.03;5054887;28;20041;-75
2022/04/12 05:17:52;;;;;;;21.75;8.82;;;;;;;8.15;85.96;100736.97;5062152;28;20517;-75
2022/04/12 05:20:24;;;;;;;21.45;9.23;;;;;;;8.13;86.64;100735.78;5066216;28;20092;-74
2022/04/12 05:22:51;;;;;;;18.00;8.98;;;;;;;8.07;87.54;100727.84;5090572;28;20094;-74
2022/04/12 05:25:19;;;;;;;20.23;9.32;;;;;;;8.11;88.45;100735.34;5071116;28;20049;-76
2022/04/12 05:27:45;;;;;;;21.88;9.68;;;;;;;8.13;87.99;100728.28;5065446;28;20107;-73
2022/04/12 05:30:13;;;;;;;24.63;11.20;;;;;;;8.16;87.80;100741.31;5062499;28;20131;-73
2022/04/12 05:32:40;;;;;;;22.27;11.07;;;;;;;8.17;86.71;100739.34;5065272;28;20052;-74
2022/04/12 05:35:09;;;;;;;18.88;9.68;;;;;;;8.24;87.13;100728.41;5056782;28;20090;-73
2022/04/12 05:37:50;;;;;;;19.38;10.32;;;;;;;8.26;87.25;100737.09;5059708;28;20448;-76
2022/04/12 05:40:18;;;;;;;19.70;10.07;;;;;;;8.30;87.58;100738.69;5065644;28;20136;-77
2022/04/12 05:42:46;;;;;;;22.17;10.60;;;;;;;8.29;87.26;100739.88;5065617;28;20132;-75
2022/04/12 05:45:14;;;;;;;20.65;10.27;;;;;;;8.30;87.50;100726.91;5064461;28;20066;-76
2022/04/12 05:47:45;;;;;;;20.98;9.68;;;;;;;8.37;87.25;100730.47;5070617;28;20155;-75
2022/04/12 05:50:14;;;;;;;21.25;9.85;;;;;;;8.43;86.75;100739.22;5062559;28;20556;-75
2022/04/12 05:52:41;;;;;;;22.08;9.68;;;;;;;8.48;86.36;100739.66;5091289;28;20052;-76
2022/04/12 05:55:17;;;;;;;20.27;9.10;;;;;;;8.51;86.61;100732.56;5068217;28;20467;-75
2022/04/12 05:58:03;;;;;;;25.23;10.02;;;;;;;8.55;85.43;100733.38;5064036;28;20048;-75
2022/04/12 06:00:30;;;;;;;;;;;;;;;8.63;86.15;100740.53;5067225;28;20048;-77
2022/04/12 06:02:58;;;;;;;22.95;9.32;;;;;;;8.66;86.24;100739.75;5061556;28;19932;-75
2022/04/12 06:05:28;;;;;;;20.55;9.77;;;;;;;8.74;85.53;100742.19;5066491;28;20049;-76
2022/04/12 06:07:54;;;;;;;22.95;9.45;;;;;;;8.83;86.39;100742.63;5062448;28;20123;-76
2022/04/12 06:10:23;;;;;;;23.77;9.98;;;;;;;8.91;84.84;100735.22;5066978;28;20152;-75
2022/04/12 06:12:56;;;;;;;20.30;9.07;;;;;;;8.98;84.39;100740.75;5063817;28;20048;-74
2022/04/12 06:15:23;;;;;;;20.63;9.77;;;;;;;9.06;83.55;100750.66;5064996;28;20045;-75
2022/04/12 06:17:49;;;;;;;19.63;9.13;;;;;;;9.14;82.95;100746.75;5057249;28;20124;-75
2022/04/12 06:20:18;;;;;;;19.05;9.30;;;;;;;9.20;83.10;100750.72;5064712;28;20072;-76
2022/04/12 06:22:44;;;;;;;25.52;10.48;;;;;;;9.27;82.43;100754.31;5066743;28;20060;-76
2022/04/12 06:25:19;;;;;;;18.48;9.52;;;;;;;9.39;82.06;100755.94;5063516;28;20056;-75
2022/04/12 06:27:51;;;;;;;22.67;9.23;;;;;;;9.48;81.28;100754.41;5067016;28;20055;-75
2022/04/12 06:30:20;;;;;;;21.33;9.40;;;;;;;9.59;80.61;100755.22;5068440;28;20420;-76
2022/04/12 06:32:47;;;;;;;20.10;8.82;;;;;;;9.72;80.39;100752.94;5071716;28;20096;-77
2022/04/12 06:35:14;;;;;;;21.83;9.35;;;;;;;9.82;79.74;100750.16;5074966;28;20485;-76
2022/04/12 06:37:43;;;;;;;20.73;9.55;;;;;;;9.98;78.48;100760.88;5067847;28;20203;-77
2022/04/12 06:40:12;;;;;;;23.92;9.60;;;;;;;10.10;77.87;100753.00;5066859;28;20052;-76
2022/04/12 06:42:38;;;;;;;21.20;9.93;;;;;;;10.24;77.25;100757.78;5064801;28;20132;-76
2022/04/12 06:45:07;;;;;;;19.80;9.65;;;;;;;10.35;76.88;100755.81;5061395;28;20040;-76
2022/04/12 06:47:34;;;;;;;23.15;9.13;;;;;;;10.45;76.10;100752.25;5056185;28;20061;-76
2022/04/12 06:50:01;;;;;;;21.58;8.93;;;;;;;10.63;75.58;100752.25;5068444;28;20489;-77
2022/04/12 06:52:28;;;;;;;25.60;9.90;;;;;;;10.79;76.00;100747.06;5066683;28;20478;-76
2022/04/12 06:54:54;;;;;;;21.13;9.05;;;;;;;10.92;75.21;100726.09;5067455;28;20492;-75
2022/04/12 06:57:21;;;;;;;21.25;9.45;;;;;;;11.11;74.38;100733.97;5065862;28;20132;-75
2022/04/12 06:59:47;;;;;;;19.27;8.85;;;;;;;11.30;73.59;100733.53;5065803;28;20163;-75
2022/04/12 07:02:14;;;;;;;19.75;8.30;;;;;;;11.48;72.92;100737.00;5066236;28;21493;-75
2022/04/12 07:04:40;;;;;;;21.90;9.00;;;;;;;11.64;71.71;100735.34;5051005;28;20052;-76
2022/04/12 07:07:07;;;;;;;18.02;7.20;;;;;;;11.82;70.50;100730.53;5061708;28;20052;-74
2022/04/12 07:09:34;;;;;;;19.63;8.40;;;;;;;11.97;69.20;100725.66;5066111;28;20151;-72
2022/04/12 07:12:01;;;;;;;20.13;8.18;;;;;;;12.12;68.29;100716.06;5064984;28;20078;-74
2022/04/12 07:14:29;;;;;;;21.60;8.55;;;;;;;12.26;67.65;100713.94;5063482;28;20167;-75
2022/04/12 07:16:56;;;;;;;19.45;7.93;;;;;;;12.44;66.91;100708.25;5062030;28;20048;-75
2022/04/12 07:19:23;;;;;;;21.42;7.82;;;;;;;12.60;65.82;100717.63;5068270;28;20132;-75
2022/04/12 07:21:50;;;;;;;13.85;6.82;;;;;;;12.79;64.39;100738.44;5066221;28;20127;-73
2022/04/12 07:24:16;;;;;;;22.45;7.50;;;;;;;12.92;63.63;100740.31;5061779;28;20056;-73
2022/04/12 07:26:43;;;;;;;18.85;7.43;;;;;;;13.04;62.90;100744.59;5061361;28;20053;-73
2022/04/12 07:29:10;;;;;;;19.17;7.57;;;;;;;13.19;62.60;100743.22;5063088;28;20131;-75
2022/04/12 07:31:36;;;;;;;18.38;7.32;;;;;;;13.33;61.87;100742.28;5063960;28;20053;-75
2022/04/12 07:34:04;;;;;;;21.63;8.35;;;;;;;13.48;60.86;100735.31;5055967;28;20131;-74
2022/04/12 07:36:30;;;;;;;18.85;6.63;;;;;;;13.66;60.28;100733.09;5089590;28;20492;-75
2022/04/12 07:38:57;;;;;;;18.45;7.00;;;;;;;13.80;60.17;100736.47;5068116;28;20505;-76
2022/04/12 07:41:23;;;;;;;17.58;7.00;;;;;;;13.93;59.36;100743.06;5063024;28;20143;-74
2022/04/12 07:43:52;;;;;;;15.48;6.15;;;;;;;14.07;58.97;100733.72;5090513;28;20079;-76
2022/04/12 07:46:18;;;;;;;18.90;6.30;;;;;;;14.22;58.28;100735.06;5053374;28;20663;-76
2022/04/12 07:48:48;;;;;;;15.70;5.88;;;;;;;14.41;56.41;100731.63;5063546;28;20052;-74
2022/04/12 07:51:15;;;;;;;16.63;5.63;;;;;;;14.55;56.30;100732.16;5065490;28;20463;-76
2022/04/12 07:53:42;;;;;;;14.05;5.95;;;;;;;14.72;56.00;100741.44;5057971;28;20076;-74
2022/04/12 07:56:08;;;;;;;16.55;5.30;;;;;;;14.84;55.46;100744.38;5064292;28;20132;-74
2022/04/12 07:58:35;;;;;;;15.13;5.15;;;;;;;14.97;55.16;100745.34;5065869;28;20538;-77
2022/04/12 08:01:02;;;;;;;16.67;6.05;;;;;;;15.13;54.46;100745.41;5063197;28;20087;-77
2022/04/12 08:03:28;;;;;;;16.00;4.53;;;;;;;15.30;53.42;100740.72;5066801;28;20138;-75
2022/04/12 08:05:56;;;;;;;12.73;4.57;;;;;;;15.56;52.54;100734.25;5064344;28;20050;-75
2022/04/12 08:08:22;;;;;;;10.55;3.58;;;;;;;15.81;48.27;100734.50;5058753;28;20041;-76
2022/04/12 08:10:49;;;;;;;14.75;3.90;;;;;;;16.04;48.22;100730.78;5071420;28;20062;-74
2022/04/12 08:13:15;;;;;;;9.30;3.33;;;;;;;16.24;47.22;100720.34;5061805;28;20431;-74
2022/04/12 08:15:42;;;;;;;6.60;3.05;;;;;;;16.43;46.36;100706.31;5073600;28;20745;-74
2022/04/12 08:18:09;;;;;;;5.35;2.28;;;;;;;16.68;46.31;100700.88;5060463;28;20459;-74
2022/04/12 08:20:35;;;;;;;9.73;3.13;;;;;;;16.88;47.41;100703.56;5067036;28;20065;-75
2022/04/12 08:23:02;;;;;;;10.40;3.40;;;;;;;17.08;46.94;100704.97;5061458;28;20049;-75
2022/04/12 08:25:29;;;;;;;8.98;2.92;;;;;;;17.19;45.09;100704.69;5053833;28;20575;-75
2022/04/12 08:27:56;;;;;;;10.07;2.97;;;;;;;17.33;45.79;100696.69;5062952;28;20139;-77
2022/04/12 08:30:22;;;;;;;12.15;3.67;;;;;;;17.48;45.65;100699.84;5069413;28;20502;-76
2022/04/12 08:32:49;;;;;;;9.02;2.70;;;;;;;17.55;44.17;100699.66;5066684;28;20460;-75
2022/04/12 08:35:16;;;;;;;7.45;2.72;;;;;;;17.72;43.30;100698.34;5066001;28;20087;-76
2022/04/12 08:37:44;;;;;;;4.95;2.17;;;;;;;17.85;42.98;100693.53;5069388;28;20107;-72
2022/04/12 08:40:11;;;;;;;1.95;0.80;;;;;;;17.94;41.19;100697.25;5066898;28;20133;-70
2022/04/12 08:42:38;;;;;;;5.22;1.60;;;;;;;18.09;41.13;100696.78;5061100;28;20103;-76
2022/04/12 08:45:08;;;;;;;7.53;2.67;;;;;;;18.37;42.46;100701.47;5066713;28;20044;-75
2022/04/12 08:47:35;;;;;;;5.82;2.00;;;;;;;18.44;41.17;100699.25;5064191;28;20079;-76
2022/04/12 08:50:04;;;;;;;5.82;1.98;;;;;;;18.60;40.59;100695.50;5081073;28;20067;-75
2022/04/12 08:52:31;;;;;;;1.27;0.75;;;;;;;18.71;40.06;100701.53;5061768;28;20052;-74
2022/04/12 08:54:59;;;;;;;6.47;1.90;;;;;;;18.98;41.17;100693.34;5061740;28;20398;-74
2022/04/12 08:57:25;;;;;;;3.38;1.90;;;;;;;19.00;40.02;100696.50;5065239;28;20098;-73
2022/04/12 08:59:52;;;;;;;6.68;2.22;;;;;;;19.11;39.82;100685.66;5066298;28;20120;-74
2022/04/12 09:02:19;;;;;;;5.35;2.13;;;;;;;19.11;39.70;100683.66;5081468;28;20048;-76
2022/04/12 09:04:46;;;;;;;4.22;1.88;;;;;;;19.31;40.35;100684.13;5061024;28;20052;-73
2022/04/12 09:07:13;;;;;;;3.33;1.05;;;;;;;19.34;38.93;100682.44;5063400;28;20753;-73
2022/04/12 09:09:42;;;;;;;7.88;2.13;;;;;;;19.37;39.33;100673.09;5054802;28;20051;-76
2022/04/12 09:12:13;;;;;;;6.78;2.30;;;;;;;19.51;39.52;100673.34;5059341;28;20509;-73
2022/04/12 09:14:52;;;;;;;7.57;1.98;;;;;;;19.56;39.18;100688.78;5061344;28;20044;-74
2022/04/12 09:17:27;;;;;;;6.80;1.80;;;;;;;19.75;39.72;100682.81;5061970;28;20141;-74
2022/04/12 09:19:55;;;;;;;5.60;1.30;;;;;;;19.69;38.05;100689.50;5064369;28;20174;-73
2022/04/12 09:22:24;;;;;;;2.75;1.23;;;;;;;19.77;37.40;100677.53;5053434;28;20072;-75
2022/04/12 09:24:51;;;;;;;5.22;1.70;;;;;;;19.93;38.09;100674.50;5082969;28;20147;-69
2022/04/12 09:27:23;;;;;;;5.32;1.73;;;;;;;20.12;37.42;100662.09;5058417;28;20553;-74
2022/04/12 09:29:52;;;;;;;4.90;1.58;;;;;;;20.18;36.68;100670.69;5059187;28;20139;-77
2022/04/12 09:32:21;;;;;;;3.53;1.77;;;;;;;20.35;37.04;100664.34;5056750;28;20107;-76
2022/04/12 09:34:47;;;;;;;5.80;2.08;;;;;;;20.20;36.18;100671.00;5048775;28;20158;-76
2022/04/12 09:37:22;;;;;;;8.05;1.65;;;;;;;20.67;37.02;100667.81;5048726;28;20132;-72
2022/04/12 09:39:53;;;;;;;7.88;2.25;;;;;;;20.81;36.82;100658.75;5068858;28;20160;-75
2022/04/12 09:42:41;;;;;;;2.92;1.40;;;;;;;20.88;35.76;100666.88;5057358;28;20612;-76
2022/04/12 09:45:11;;;;;;;2.72;1.13;;;;;;;20.82;35.24;100668.78;5057539;28;20498;-76
2022/04/12 09:47:39;;;;;;;2.10;1.20;;;;;;;20.87;35.19;100656.91;5066654;28;20044;-75
2022/04/12 09:50:27;;;;;;;3.95;1.17;;;;;;;21.03;35.47;100656.63;5060507;28;20057;-74
2022/04/12 09:52:57;;;;;;;8.20;1.17;;;;;;;21.02;35.08;100653.00;5058508;28;20044;-76
2022/04/12 09:55:44;;;;;;;3.70;2.03;;;;;;;21.11;35.20;100644.56;5061751;28;20055;-76
2022/04/12 09:58:16;;;;;;;2.17;1.05;;;;;;;21.01;34.65;100645.84;5067355;28;20049;-74
2022/04/12 10:00:47;;;;;;;4.40;1.60;;;;;;;21.24;35.10;100644.38;5067034;28;20134;-75
2022/04/12 10:03:16;;;;;;;10.23;1.35;;;;;;;21.17;35.02;100636.28;5072547;28;20576;-74
2022/04/12 10:05:44;;;;;;;4.43;1.55;;;;;;;21.47;35.38;100640.91;5076515;28;20056;-75
2022/04/12 10:08:12;;;;;;;5.05;1.30;;;;;;;21.46;34.93;100619.66;5062522;28;20445;-76
2022/04/12 10:10:44;;;;;;;4.65;1.30;;;;;;;21.57;34.80;100636.81;5062838;28;20052;-75
2022/04/12 10:13:13;;;;;;;6.00;1.65;;;;;;;21.84;35.10;100622.66;5062416;28;20048;-74
2022/04/12 10:15:40;;;;;;;6.82;1.45;;;;;;;21.93;34.55;100619.75;5091024;28;20052;-74
2022/04/12 10:18:07;;;;;;;2.42;0.93;;;;;;;21.96;33.34;100624.44;5070046;28;20072;-74
2022/04/12 10:20:33;;;;;;;3.40;1.60;;;;;;;22.19;34.04;100618.06;5059619;28;20148;-75
2022/04/12 10:23:01;;;;;;;5.28;1.92;;;;;;;22.36;33.95;100605.91;5057155;28;20136;-74
2022/04/12 10:25:28;;;;;;;5.78;1.65;;;;;;;22.40;33.86;100614.94;5081055;28;20057;-75
2022/04/12 10:28:00;;;;;;;4.65;1.80;;;;;;;22.58;33.19;100603.56;5062696;28;20079;-74
2022/04/12 10:30:28;;;;;;;7.63;2.40;;;;;;;22.79;33.39;100616.53;5092702;28;20546;-74
2022/04/12 10:33:06;;;;;;;3.72;1.77;;;;;;;22.89;32.53;100619.28;5067025;28;20060;-76
2022/04/12 10:35:45;;;;;;;2.28;1.02;;;;;;;22.62;31.94;100621.06;5085734;28;20131;-75
2022/04/12 10:38:13;;;;;;;4.03;1.50;;;;;;;22.74;32.34;100607.97;5060217;28;20076;-74
2022/04/12 10:40:48;;;;;;;1.90;0.80;;;;;;;22.82;32.16;100612.00;5064202;28;20049;-74
2022/04/12 10:43:15;;;;;;;3.38;1.58;;;;;;;;;;5053574;28;20061;-74
2022/04/12 10:45:46;;;;;;;4.63;1.73;;;;;;;23.07;31.31;100617.06;5083747;28;20053;-74
2022/04/12 10:48:22;;;;;;;7.85;1.58;;;;;;;23.08;31.48;100603.75;5065178;28;20102;-74
2022/04/12 10:50:51;;;;;;;5.60;1.48;;;;;;;23.26;30.77;100598.72;5058397;28;20048;-74
2022/04/12 10:53:36;;;;;;;4.65;2.00;;;;;;;23.53;31.66;100606.91;5055988;28;20055;-74
2022/04/12 10:56:11;;;;;;;6.40;1.88;;;;;;;23.71;31.74;100592.53;5068799;28;20139;-75
2022/04/12 10:58:38;;;;;;;3.97;1.73;;;;;;;23.78;31.21;100603.44;5066133;28;20056;-75
2022/04/12 11:01:09;;;;;;;4.88;1.92;;;;;;;23.91;30.97;100598.25;5068319;28;20652;-74
2022/04/12 11:03:43;;;;;;;5.97;1.85;;;;;;;24.09;30.98;100597.22;5068880;28;20068;-75
2022/04/12 11:06:33;;;;;;;4.05;1.75;;;;;;;24.11;30.45;100606.00;5068008;28;20131;-74
2022/04/12 11:09:05;;;;;;;7.13;2.13;;;;;;;24.14;30.94;100600.16;5075741;28;20520;-74
2022/04/12 11:11:40;;;;;;;3.22;2.10;;;;;;;24.19;29.93;100596.59;5066166;28;20049;-75
2022/04/12 11:14:25;;;;;;;6.82;2.15;;;;;;;24.26;29.94;100601.09;5061015;28;20059;-74
2022/04/12 11:17:01;;;;;;;4.17;1.40;;;;;;;24.29;30.42;100603.69;5059757;28;20090;-75
2022/04/12 11:19:40;;;;;;;1.42;0.73;;;;;;;24.37;28.93;100609.69;5066711;28;20410;-75
2022/04/12 11:22:13;;;;;;;7.03;1.73;;;;;;;24.49;29.37;100602.91;5057403;28;20053;-75
2022/04/12 11:24:41;;;;;;;2.17;0.60;;;;;;;24.28;28.51;100590.81;5064387;28;20080;-74
2022/04/12 11:27:12;;;;;;;6.38;1.48;;;;;;;24.52;29.27;100610.41;5066735;28;20068;-74
2022/04/12 11:29:41;;;;;;;9.00;1.90;;;;;;;24.54;29.15;100590.88;5065098;28;20513;-74
2022/04/12 11:32:09;;;;;;;4.22;0.80;;;;;;;24.39;29.04;100622.06;5061035;28;20316;-74